Time;durP1;ratioP1;P1;durP2;ratioP2;P2;SDS_P1;SDS_P2;PMS_P1;PMS_P2;Temp;Humidity;BMP_temperature;BMP_pressure;BME280_temperature;BME280_humidity;BME280_pressure;Samples;Min_cycle;Max_cycle;Signal;HPM_P1;HPM_P2
2024/04/14 00:01:51;;;;;;;7.80;3.70;;;;;;;;;;103618;1292;544765;-68
2024/04/14 00:05:29;;;;;;;8.70;3.40;;;;;;;;;;103617;1291;545394;-70
2024/04/14 00:09:07;;;;;;;7.30;3.50;;;;;;;;;;103736;1291;545666;-70
2024/04/14 00:12:44;;;;;;;6.60;3.10;;;;;;;;;;103995;1295;544966;-70
2024/04/14 00:16:21;;;;;;;6.50;3.00;;;;;;;;;;103738;1295;545453;-71
2024/04/14 00:19:55;;;;;;;8.60;4.00;;;;;;;;;;104063;1289;544789;-71
2024/04/14 00:23:36;;;;;;;8.80;3.60;;;;;;;;;;103841;1289;545514;-70
2024/04/14 00:27:14;;;;;;;7.50;3.50;;;;;;;;;;104207;1290;546008;-70
2024/04/14 00:30:51;;;;;;;8.20;3.30;;;;;;;;;;104211;1283;544711;-69
2024/04/14 00:34:29;;;;;;;7.90;3.60;;;;;;;;;;103612;1289;545051;-72
2024/04/14 00:38:06;;;;;;;8.10;3.50;;;;;;;;;;103784;1289;544952;-69
2024/04/14 00:41:44;;;;;;;8.80;3.90;;;;;;;;;;103807;1289;545416;-69
2024/04/14 00:45:22;;;;;;;7.10;3.60;;;;;;;;;;103757;1292;544961;-70
2024/04/14 00:49:00;;;;;;;7.40;3.50;;;;;;;;;;103687;1292;546183;-70
2024/04/14 00:52:36;;;;;;;7.00;3.30;;;;;;;;;;104182;1286;545218;-73
2024/04/14 00:56:14;;;;;;;8.30;3.50;;;;;;;;;;103541;1302;544920;-70
2024/04/14 00:59:52;;;;;;;9.10;3.70;;;;;;;;;;103923;1288;544838;-70
2024/04/14 01:03:29;;;;;;;9.20;3.70;;;;;;;;;;103704;1289;545049;-70
2024/04/14 01:07:06;;;;;;;7.50;3.70;;;;;;;;;;103618;1291;545608;-69
2024/04/14 01:10:44;;;;;;;6.70;3.40;;;;;;;;;;103775;1289;545457;-70
2024/04/14 01:14:22;;;;;;;8.10;3.40;;;;;;;;;;103774;1290;544797;-70
2024/04/14 01:17:59;;;;;;;7.10;3.30;;;;;;;;;;104287;1282;545159;-70
2024/04/14 01:21:36;;;;;;;7.00;3.20;;;;;;;;;;103647;1292;545330;-69
2024/04/14 01:25:13;;;;;;;6.60;3.30;;;;;;;;;;103661;1289;544954;-70
2024/04/14 01:28:51;;;;;;;7.70;3.50;;;;;;;;;;103687;1292;545031;-69
2024/04/14 01:32:30;;;;;;;8.00;3.30;;;;;;;;;;103607;1295;544954;-69
2024/04/14 01:36:07;;;;;;;6.00;2.50;;;;;;;;;;103767;1289;544820;-71
2024/04/14 01:39:43;;;;;;;6.30;2.90;;;;;;;;;;103592;1292;545115;-69
2024/04/14 01:43:21;;;;;;;8.20;3.50;;;;;;;;;;103720;1292;545055;-70
2024/04/14 01:46:59;;;;;;;8.20;3.60;;;;;;;;;;103712;1289;545001;-70
2024/04/14 01:50:37;;;;;;;8.00;3.20;;;;;;;;;;103652;1291;545088;-70
2024/04/14 01:54:13;;;;;;;7.10;3.30;;;;;;;;;;103635;1292;544983;-70
2024/04/14 01:57:51;;;;;;;7.00;3.00;;;;;;;;;;103596;1292;546023;-69
2024/04/14 02:01:28;;;;;;;6.70;3.20;;;;;;;;;;103738;1295;544990;-70
2024/04/14 02:05:07;;;;;;;7.30;3.30;;;;;;;;;;103517;1295;545815;-70
2024/04/14 02:08:44;;;;;;;6.80;3.50;;;;;;;;;;104499;1282;544968;-71
2024/04/14 02:12:17;;;;;;;9.00;3.40;;;;;;;;;;103750;1289;545043;-70
2024/04/14 02:16:00;;;;;;;6.80;3.00;;;;;;;;;;103656;1293;545679;-69
2024/04/14 02:19:35;;;;;;;6.20;2.60;;;;;;;;;;103660;1294;545109;-70
2024/04/14 02:23:14;;;;;;;6.20;2.80;;;;;;;;;;103766;1294;545049;-70
2024/04/14 02:26:51;;;;;;;6.90;2.90;;;;;;;;;;104067;1286;545154;-72
2024/04/14 02:30:28;;;;;;;7.00;3.00;;;;;;;;;;103697;1289;545409;-70
2024/04/14 02:34:06;;;;;;;7.70;2.90;;;;;;;;;;103904;1288;545348;-69
2024/04/14 02:37:44;;;;;;;5.70;2.70;;;;;;;;;;103653;1291;545950;-70
2024/04/14 02:41:20;;;;;;;6.00;2.50;;;;;;;;;;104391;1283;544928;-69
2024/04/14 02:44:58;;;;;;;6.50;2.50;;;;;;;;;;103789;1289;545492;-72
2024/04/14 02:48:35;;;;;;;6.70;2.90;;;;;;;;;;103710;1303;545923;-70
2024/04/14 02:52:14;;;;;;;8.00;3.10;;;;;;;;;;103811;1292;544770;-69
2024/04/14 02:55:50;;;;;;;8.60;4.00;;;;;;;;;;104021;1285;545969;-68
2024/04/14 02:59:32;;;;;;;6.60;2.90;;;;;;;;;;103966;1288;545115;-69
2024/04/14 03:03:06;;;;;;;6.30;2.20;;;;;;;;;;103690;1295;544806;-70
2024/04/14 03:06:43;;;;;;;10.10;3.90;;;;;;;;;;103986;1286;544784;-71
2024/04/14 03:10:21;;;;;;;8.20;3.30;;;;;;;;;;103731;1288;545595;-70
2024/04/14 03:13:58;;;;;;;7.30;3.10;;;;;;;;;;103688;1292;545917;-69
2024/04/14 03:17:35;;;;;;;6.30;2.50;;;;;;;;;;104254;1284;544951;-69
2024/04/14 03:21:14;;;;;;;6.20;2.90;;;;;;;;;;103710;1292;544975;-69
2024/04/14 03:24:51;;;;;;;6.20;2.60;;;;;;;;;;103601;1291;545164;-69
2024/04/14 03:28:29;;;;;;;5.60;2.20;;;;;;;;;;103596;1291;545328;-69
2024/04/14 03:32:06;;;;;;;6.20;2.00;;;;;;;;;;103489;1295;545168;-70
2024/04/14 03:35:43;;;;;;;4.80;2.10;;;;;;;;;;103639;1293;545019;-69
2024/04/14 03:39:20;;;;;;;4.30;2.20;;;;;;;;;;103673;1289;545667;-70
2024/04/14 03:42:58;;;;;;;5.80;2.30;;;;;;;;;;103701;1289;544907;-70
2024/04/14 03:46:36;;;;;;;5.90;2.30;;;;;;;;;;103706;1291;544943;-70
2024/04/14 03:50:13;;;;;;;5.40;2.10;;;;;;;;;;104026;1286;545941;-68
2024/04/14 03:53:50;;;;;;;6.70;2.10;;;;;;;;;;103590;1305;545580;-70
2024/04/14 03:57:29;;;;;;;4.80;1.80;;;;;;;;;;104413;1293;545157;-70
2024/04/14 04:01:05;;;;;;;6.10;2.20;;;;;;;;;;103692;1292;545129;-73
2024/04/14 04:04:43;;;;;;;4.70;1.80;;;;;;;;;;103713;1293;545597;-71
2024/04/14 04:08:24;;;;;;;5.10;2.00;;;;;;;;;;103669;1292;544758;-70
2024/04/14 04:11:59;;;;;;;5.10;2.20;;;;;;;;;;103692;1291;545062;-69
2024/04/14 04:15:35;;;;;;;4.50;1.80;;;;;;;;;;103855;1289;545812;-69
2024/04/14 04:19:14;;;;;;;5.50;2.00;;;;;;;;;;103680;1290;545206;-71
2024/04/14 04:22:51;;;;;;;5.50;1.60;;;;;;;;;;103795;1289;545367;-70
2024/04/14 04:26:29;;;;;;;5.20;2.20;;;;;;;;;;104325;1285;545248;-70
2024/04/14 04:30:05;;;;;;;4.70;2.00;;;;;;;;;;103790;1289;545854;-70
2024/04/14 04:33:44;;;;;;;4.70;1.80;;;;;;;;;;103770;1289;545704;-69
2024/04/14 04:37:20;;;;;;;4.40;1.90;;;;;;;;;;103764;1291;544930;-69
2024/04/14 04:40:59;;;;;;;5.20;2.00;;;;;;;;;;103658;1295;545513;-69
2024/04/14 04:44:35;;;;;;;4.80;1.80;;;;;;;;;;103671;1289;544946;-70
2024/04/14 04:48:13;;;;;;;3.90;1.80;;;;;;;;;;103797;1289;544862;-70
2024/04/14 04:51:50;;;;;;;4.70;1.90;;;;;;;;;;103810;1289;545331;-70
2024/04/14 04:55:28;;;;;;;6.20;1.80;;;;;;;;;;103686;1289;544830;-70
2024/04/14 04:59:05;;;;;;;6.30;2.10;;;;;;;;;;103788;1289;545104;-71
2024/04/14 05:02:43;;;;;;;4.40;2.00;;;;;;;;;;103680;1292;545109;-71
2024/04/14 05:06:20;;;;;;;6.30;1.90;;;;;;;;;;103624;1302;545253;-71
2024/04/14 05:09:58;;;;;;;5.40;1.90;;;;;;;;;;103794;1289;545569;-69
2024/04/14 05:13:35;;;;;;;4.60;2.10;;;;;;;;;;103871;1289;544929;-69
2024/04/14 05:17:13;;;;;;;4.90;1.90;;;;;;;;;;103628;1297;544966;-70
2024/04/14 05:20:50;;;;;;;5.20;2.00;;;;;;;;;;103684;1291;545347;-70
2024/04/14 05:24:28;;;;;;;5.50;2.00;;;;;;;;;;103660;1291;544918;-69
2024/04/14 05:28:05;;;;;;;7.60;2.40;;;;;;;;;;103789;1292;545260;-69
2024/04/14 05:31:43;;;;;;;5.60;2.10;;;;;;;;;;103630;1292;545093;-68
2024/04/14 05:35:20;;;;;;;7.40;2.30;;;;;;;;;;103728;1292;545020;-69
2024/04/14 05:38:58;;;;;;;4.80;2.10;;;;;;;;;;103540;1292;544803;-70
2024/04/14 05:42:35;;;;;;;4.80;2.10;;;;;;;;;;104080;1286;545387;-69
2024/04/14 05:46:13;;;;;;;6.50;2.30;;;;;;;;;;103886;1286;545151;-70
2024/04/14 05:49:46;;;;;;;5.90;2.20;;;;;;;;;;103564;1292;545593;-69
2024/04/14 05:53:28;;;;;;;6.20;2.10;;;;;;;;;;103637;1295;544959;-70
2024/04/14 05:57:05;;;;;;;4.80;2.10;;;;;;;;;;103626;1289;545072;-69
2024/04/14 06:00:39;;;;;;;5.30;2.20;;;;;;;;;;103591;1292;545606;-70
2024/04/14 06:04:20;;;;;;;5.80;2.40;;;;;;;;;;103618;1291;544993;-72
2024/04/14 06:07:57;;;;;;;6.10;2.20;;;;;;;;;;103598;1292;545220;-68
2024/04/14 06:11:35;;;;;;;5.90;2.40;;;;;;;;;;104079;1289;545953;-69
2024/04/14 06:15:12;;;;;;;6.70;2.40;;;;;;;;;;103734;1295;545154;-70
2024/04/14 06:18:50;;;;;;;5.90;2.50;;;;;;;;;;104470;1285;545911;-72
2024/04/14 06:22:30;;;;;;;4.60;2.20;;;;;;;;;;104004;1289;544945;-71
2024/04/14 06:26:05;;;;;;;6.50;2.50;;;;;;;;;;103583;1292;544857;-69
2024/04/14 06:29:43;;;;;;;6.40;2.40;;;;;;;;;;103657;1291;545478;-69
2024/04/14 06:33:20;;;;;;;7.20;2.60;;;;;;;;;;103645;1291;545610;-70
2024/04/14 06:36:58;;;;;;;7.00;2.40;;;;;;;;;;103715;1294;544778;-69
2024/04/14 06:40:34;;;;;;;5.40;2.30;;;;;;;;;;103714;1292;544944;-69
2024/04/14 06:44:13;;;;;;;6.50;2.20;;;;;;;;;;103604;1288;545281;-69
2024/04/14 06:47:50;;;;;;;8.00;2.80;;;;;;;;;;103492;1292;544750;-71
2024/04/14 06:51:28;;;;;;;5.90;2.30;;;;;;;;;;104068;1285;545368;-69
2024/04/14 06:55:05;;;;;;;4.40;2.30;;;;;;;;;;104150;1286;544875;-73
2024/04/14 06:58:42;;;;;;;5.20;2.50;;;;;;;;;;103595;1292;544874;-68
2024/04/14 07:02:19;;;;;;;5.80;2.40;;;;;;;;;;103661;1292;545952;-70
2024/04/14 07:05:57;;;;;;;6.50;2.40;;;;;;;;;;103617;1291;545242;-70
2024/04/14 07:09:35;;;;;;;6.60;2.40;;;;;;;;;;103826;1292;546090;-72
2024/04/14 07:13:13;;;;;;;6.40;2.40;;;;;;;;;;103639;1298;544873;-72
2024/04/14 07:16:50;;;;;;;8.70;2.80;;;;;;;;;;103738;1290;544787;-69
2024/04/14 07:20:28;;;;;;;6.50;2.30;;;;;;;;;;104339;1282;545504;-70
2024/04/14 07:24:04;;;;;;;8.20;2.80;;;;;;;;;;103564;1303;545050;-70
2024/04/14 07:27:44;;;;;;;6.10;2.60;;;;;;;;;;104255;1283;545541;-72
2024/04/14 07:31:19;;;;;;;5.80;2.60;;;;;;;;;;103734;1291;547244;-70
2024/04/14 07:34:57;;;;;;;7.40;2.50;;;;;;;;;;104347;1285;544772;-70
2024/04/14 07:38:34;;;;;;;7.60;2.70;;;;;;;;;;103674;1292;544828;-75
2024/04/14 07:42:12;;;;;;;7.60;3.10;;;;;;;;;;104395;1288;545324;-77
2024/04/14 07:45:45;;;;;;;13.80;3.20;;;;;;;;;;104385;1285;544969;-70
2024/04/14 07:49:28;;;;;;;8.20;3.40;;;;;;;;;;103674;1293;545134;-69
2024/04/14 07:53:04;;;;;;;22.80;4.20;;;;;;;;;;104204;1286;544832;-72
2024/04/14 07:56:42;;;;;;;9.30;3.10;;;;;;;;;;103760;1290;545375;-73
2024/04/14 08:00:19;;;;;;;9.90;3.00;;;;;;;;;;103584;1295;544843;-71
2024/04/14 08:03:57;;;;;;;6.10;2.70;;;;;;;;;;103704;1290;544763;-72
2024/04/14 08:07:35;;;;;;;6.50;2.90;;;;;;;;;;103534;1292;546032;-71
2024/04/14 08:11:13;;;;;;;6.10;2.90;;;;;;;;;;103954;1286;547922;-69
2024/04/14 08:14:49;;;;;;;6.20;2.60;;;;;;;;;;103632;1290;545142;-70
2024/04/14 08:18:27;;;;;;;8.60;2.80;;;;;;;;;;103623;1292;545267;-70
2024/04/14 08:22:00;;;;;;;7.80;2.80;;;;;;;;;;104054;1289;544825;-73
2024/04/14 08:25:42;;;;;;;7.60;3.10;;;;;;;;;;104673;1282;544934;-70
2024/04/14 08:29:21;;;;;;;7.10;2.80;;;;;;;;;;103933;1289;544765;-70
2024/04/14 08:32:57;;;;;;;10.20;3.00;;;;;;;;;;103664;1295;545005;-70
2024/04/14 08:36:34;;;;;;;13.30;3.10;;;;;;;;;;104161;1286;545500;-70
2024/04/14 08:40:12;;;;;;;7.30;3.00;;;;;;;;;;103684;1291;546251;-71
2024/04/14 08:43:51;;;;;;;6.40;3.00;;;;;;;;;;103606;1291;544920;-70
2024/04/14 08:47:27;;;;;;;7.50;3.00;;;;;;;;;;103664;1291;545221;-71
2024/04/14 08:51:04;;;;;;;12.50;3.10;;;;;;;;;;103868;1296;545048;-73
2024/04/14 08:54:41;;;;;;;9.20;3.00;;;;;;;;;;104081;1292;545073;-72
2024/04/14 08:58:20;;;;;;;6.70;2.70;;;;;;;;;;103802;1292;545048;-69
2024/04/14 09:01:57;;;;;;;8.20;3.00;;;;;;;;;;103691;1292;545643;-70
2024/04/14 09:05:34;;;;;;;13.00;3.00;;;;;;;;;;103599;1293;544987;-72
2024/04/14 09:09:13;;;;;;;9.70;2.90;;;;;;;;;;103683;1291;545076;-69
2024/04/14 09:12:49;;;;;;;10.10;3.00;;;;;;;;;;103933;1289;544765;-71
2024/04/14 09:16:27;;;;;;;8.90;2.60;;;;;;;;;;103624;1291;545112;-75
2024/04/14 09:20:00;;;;;;;7.10;2.50;;;;;;;;;;103645;1292;547270;-70
2024/04/14 09:23:42;;;;;;;7.10;2.70;;;;;;;;;;103674;1295;545071;-71
2024/04/14 09:27:20;;;;;;;7.70;2.70;;;;;;;;;;103622;1292;544967;-70
2024/04/14 09:30:56;;;;;;;8.60;2.20;;;;;;;;;;103985;1292;545155;-69
2024/04/14 09:34:40;;;;;;;5.90;2.20;;;;;;;;;;103732;1292;544871;-70
2024/04/14 09:38:14;;;;;;;9.00;3.20;;;;;;;;;;103630;1292;546072;-70
2024/04/14 09:41:48;;;;;;;7.40;3.00;;;;;;;;;;104659;1280;544773;-69
2024/04/14 09:45:26;;;;;;;7.40;2.70;;;;;;;;;;103715;1292;545505;-70
2024/04/14 09:49:00;;;;;;;7.00;2.90;;;;;;;;;;103945;1292;544794;-71
2024/04/14 09:52:41;;;;;;;7.70;2.80;;;;;;;;;;103544;1293;546521;-71
2024/04/14 09:56:19;;;;;;;9.20;3.10;;;;;;;;;;103781;1289;545418;-71
2024/04/14 09:59:56;;;;;;;6.70;2.70;;;;;;;;;;103590;1291;545054;-70
2024/04/14 10:03:35;;;;;;;8.70;2.80;;;;;;;;;;103792;1291;545151;-70
2024/04/14 10:07:12;;;;;;;7.10;2.40;;;;;;;;;;103698;1290;544881;-70
2024/04/14 10:10:52;;;;;;;5.70;2.40;;;;;;;;;;103651;1289;545020;-69
2024/04/14 10:14:28;;;;;;;6.70;2.30;;;;;;;;;;103562;1295;545149;-73
2024/04/14 10:18:11;;;;;;;8.00;2.40;;;;;;;;;;103688;1289;545061;-70
2024/04/14 10:21:41;;;;;;;6.60;2.50;;;;;;;;;;104258;1287;544785;-73
2024/04/14 10:25:20;;;;;;;9.10;2.90;;;;;;;;;;103953;1286;545205;-72
2024/04/14 10:28:56;;;;;;;6.20;2.40;;;;;;;;;;103730;1292;545402;-69
2024/04/14 10:33:13;;;;;;;6.30;2.60;;;;;;;;;;103605;1294;545258;-69
2024/04/14 10:36:11;;;;;;;6.30;2.60;;;;;;;;;;103626;1297;545509;-72
2024/04/14 10:39:49;;;;;;;6.30;3.00;;;;;;;;;;103305;1305;544852;-69
2024/04/14 10:43:26;;;;;;;5.50;2.60;;;;;;;;;;103583;1289;544838;-69
2024/04/14 10:47:03;;;;;;;7.90;2.90;;;;;;;;;;103988;1288;545223;-69
2024/04/14 10:50:44;;;;;;;6.20;2.40;;;;;;;;;;103529;1293;546269;-70
2024/04/14 10:54:19;;;;;;;7.70;2.70;;;;;;;;;;104422;1288;544847;-70
2024/04/14 10:57:52;;;;;;;8.00;2.90;;;;;;;;;;103754;1290;545956;-69
2024/04/14 11:01:33;;;;;;;5.90;2.90;;;;;;;;;;103863;1299;545041;-68
2024/04/14 11:05:11;;;;;;;7.50;2.80;;;;;;;;;;103439;1289;547362;-69
2024/04/14 11:08:48;;;;;;;7.10;2.90;;;;;;;;;;103513;1292;544863;-71
2024/04/14 11:12:26;;;;;;;6.50;2.90;;;;;;;;;;103851;1291;544904;-69
2024/04/14 11:16:05;;;;;;;6.20;2.30;;;;;;;;;;103651;1290;544818;-69
2024/04/14 11:19:41;;;;;;;7.40;2.90;;;;;;;;;;103558;1293;545491;-69
2024/04/14 11:23:18;;;;;;;7.40;2.70;;;;;;;;;;103726;1291;544898;-73
2024/04/14 11:26:56;;;;;;;7.00;3.10;;;;;;;;;;103586;1302;545548;-69
2024/04/14 11:30:33;;;;;;;7.10;3.70;;;;;;;;;;103886;1289;545038;-68
2024/04/14 11:34:11;;;;;;;8.10;2.80;;;;;;;;;;103614;1290;545472;-72
2024/04/14 11:37:51;;;;;;;7.20;3.00;;;;;;;;;;103612;1291;545052;-69
2024/04/14 11:41:26;;;;;;;8.00;3.00;;;;;;;;;;103808;1288;545197;-69
2024/04/14 11:45:03;;;;;;;7.70;3.40;;;;;;;;;;103671;1289;545394;-72
2024/04/14 11:48:40;;;;;;;7.70;2.80;;;;;;;;;;103587;1291;544852;-69
2024/04/14 11:52:19;;;;;;;7.70;3.00;;;;;;;;;;103540;1295;545379;-72
2024/04/14 11:55:56;;;;;;;7.90;3.30;;;;;;;;;;103778;1292;544892;-73
2024/04/14 11:59:33;;;;;;;6.40;3.30;;;;;;;;;;103942;1288;545830;-68
2024/04/14 12:03:10;;;;;;;8.50;3.30;;;;;;;;;;103634;1293;545435;-71
2024/04/14 12:06:44;;;;;;;7.20;3.50;;;;;;;;;;103589;1291;544949;-70
2024/04/14 12:10:26;;;;;;;10.60;5.00;;;;;;;;;;103560;1291;545230;-67
2024/04/14 12:13:59;;;;;;;10.10;3.30;;;;;;;;;;103578;1296;544758;-68
2024/04/14 12:17:41;;;;;;;8.40;3.10;;;;;;;;;;103578;1291;544957;-71
2024/04/14 12:21:18;;;;;;;8.50;3.00;;;;;;;;;;103652;1289;545693;-68
2024/04/14 12:24:56;;;;;;;6.50;3.00;;;;;;;;;;103535;1292;545592;-69
2024/04/14 12:28:33;;;;;;;7.50;3.00;;;;;;;;;;103690;1297;545353;-68
2024/04/14 12:32:11;;;;;;;8.70;3.30;;;;;;;;;;103778;1290;545029;-70
2024/04/14 12:35:48;;;;;;;6.00;3.10;;;;;;;;;;103503;1303;544930;-69
2024/04/14 12:39:26;;;;;;;7.90;3.00;;;;;;;;;;104107;1296;547296;-68
2024/04/14 12:43:02;;;;;;;6.70;2.80;;;;;;;;;;103492;1292;545148;-68
2024/04/14 12:46:41;;;;;;;9.00;3.30;;;;;;;;;;103611;1291;544992;-69
2024/04/14 12:50:18;;;;;;;8.30;3.20;;;;;;;;;;103846;1289;545019;-70
2024/04/14 12:53:55;;;;;;;6.80;2.80;;;;;;;;;;103306;1292;544901;-69
2024/04/14 12:57:33;;;;;;;7.40;3.20;;;;;;;;;;103462;1291;546808;-70
2024/04/14 13:01:10;;;;;;;6.00;2.60;;;;;;;;;;103610;1289;545627;-67
2024/04/14 13:04:47;;;;;;;8.20;2.70;;;;;;;;;;103539;1292;544785;-68
2024/04/14 13:08:25;;;;;;;6.50;2.80;;;;;;;;;;103435;1291;544883;-69
2024/04/14 13:12:03;;;;;;;8.00;2.90;;;;;;;;;;103418;1292;544888;-68
2024/04/14 13:15:40;;;;;;;7.10;2.90;;;;;;;;;;103644;1288;545099;-69
2024/04/14 13:19:18;;;;;;;7.30;2.90;;;;;;;;;;104138;1286;545046;-69
2024/04/14 13:23:01;;;;;;;7.00;2.70;;;;;;;;;;103686;1294;545468;-68
2024/04/14 13:26:33;;;;;;;7.50;2.70;;;;;;;;;;103547;1292;545595;-68
2024/04/14 13:30:11;;;;;;;5.60;2.60;;;;;;;;;;103640;1289;544972;-70
2024/04/14 13:33:48;;;;;;;5.80;2.50;;;;;;;;;;103505;1289;546110;-67
2024/04/14 13:37:26;;;;;;;5.20;2.20;;;;;;;;;;103869;1289;547264;-67
2024/04/14 13:41:05;;;;;;;9.50;2.50;;;;;;;;;;103550;1297;545048;-72
2024/04/14 13:44:42;;;;;;;6.60;2.10;;;;;;;;;;103631;1295;545208;-70
2024/04/14 13:48:17;;;;;;;9.90;2.70;;;;;;;;;;103254;1297;545030;-67
2024/04/14 13:51:55;;;;;;;8.40;2.50;;;;;;;;;;103963;1285;545069;-70
2024/04/14 13:55:33;;;;;;;10.40;2.30;;;;;;;;;;103474;1289;545030;-68
2024/04/14 13:59:10;;;;;;;8.90;2.10;;;;;;;;;;103570;1291;545534;-69
2024/04/14 14:02:47;;;;;;;5.20;2.10;;;;;;;;;;103407;1291;545028;-68
2024/04/14 14:06:25;;;;;;;5.40;2.20;;;;;;;;;;103470;1292;544814;-71
2024/04/14 14:10:02;;;;;;;6.30;2.30;;;;;;;;;;103534;1295;547396;-68
2024/04/14 14:13:40;;;;;;;5.70;2.00;;;;;;;;;;103744;1288;544950;-69
2024/04/14 14:17:18;;;;;;;8.30;2.20;;;;;;;;;;103444;1291;545054;-68
2024/04/14 14:20:56;;;;;;;6.70;2.20;;;;;;;;;;103704;1295;545133;-69
2024/04/14 14:24:29;;;;;;;6.00;2.30;;;;;;;;;;103528;1292;545119;-69
2024/04/14 14:28:11;;;;;;;7.10;2.30;;;;;;;;;;103539;1291;545145;-69
2024/04/14 14:31:48;;;;;;;7.30;2.40;;;;;;;;;;103651;1295;544986;-68
2024/04/14 14:39:03;;;;;;;7.10;2.30;;;;;;;;;;103411;1292;545801;-69
2024/04/14 14:42:40;;;;;;;7.10;2.20;;;;;;;;;;103476;1292;546710;-68
2024/04/14 14:46:17;;;;;;;7.70;2.30;;;;;;;;;;103516;1291;547123;-68
2024/04/14 14:49:55;;;;;;;7.10;2.20;;;;;;;;;;103500;1291;545212;-67
2024/04/14 14:53:32;;;;;;;7.00;2.40;;;;;;;;;;103544;1292;545370;-68
2024/04/14 14:57:10;;;;;;;7.00;2.50;;;;;;;;;;103593;1294;545932;-70
2024/04/14 15:00:51;;;;;;;7.70;2.40;;;;;;;;;;103606;1290;544951;-67
2024/04/14 15:04:25;;;;;;;5.30;2.10;;;;;;;;;;103473;1289;547705;-67
2024/04/14 15:08:02;;;;;;;6.70;2.00;;;;;;;;;;104366;1283;544715;-68
2024/04/14 15:11:40;;;;;;;7.70;2.50;;;;;;;;;;103490;1291;545589;-68
2024/04/14 15:15:14;;;;;;;6.40;2.10;;;;;;;;;;103550;1291;545427;-68
2024/04/14 15:18:55;;;;;;;6.80;2.50;;;;;;;;;;103519;1290;545791;-69
2024/04/14 15:22:32;;;;;;;7.30;2.30;;;;;;;;;;103336;1295;546085;-70
2024/04/14 15:26:09;;;;;;;5.40;1.90;;;;;;;;;;103532;1289;544772;-70
2024/04/14 15:29:47;;;;;;;5.20;1.60;;;;;;;;;;103834;1289;545469;-68
2024/04/14 15:33:26;;;;;;;5.50;1.80;;;;;;;;;;104603;1283;544855;-67
2024/04/14 15:37:02;;;;;;;7.50;2.20;;;;;;;;;;103638;1290;545504;-69
2024/04/14 15:40:41;;;;;;;6.60;1.90;;;;;;;;;;103621;1292;546849;-70
2024/04/14 15:44:17;;;;;;;7.00;2.20;;;;;;;;;;103714;1292;544954;-67
2024/04/14 15:47:54;;;;;;;6.10;2.10;;;;;;;;;;104253;1283;545139;-68
2024/04/14 15:51:32;;;;;;;5.20;1.70;;;;;;;;;;103503;1295;545174;-69
2024/04/14 15:55:10;;;;;;;6.10;1.80;;;;;;;;;;103547;1292;544951;-68
2024/04/14 15:58:47;;;;;;;6.70;1.60;;;;;;;;;;103539;1291;547244;-68
2024/04/14 16:02:25;;;;;;;6.20;1.90;;;;;;;;;;103573;1291;547163;-67
2024/04/14 16:06:02;;;;;;;7.50;2.00;;;;;;;;;;103462;1294;545131;-68
2024/04/14 16:09:39;;;;;;;4.90;1.70;;;;;;;;;;103559;1295;546603;-71
2024/04/14 16:13:17;;;;;;;6.00;1.80;;;;;;;;;;103440;1291;547034;-69
2024/04/14 16:16:55;;;;;;;7.40;1.90;;;;;;;;;;103505;1292;545244;-68
2024/04/14 16:20:34;;;;;;;5.50;1.50;;;;;;;;;;103615;1290;544772;-70
2024/04/14 16:24:10;;;;;;;6.20;1.70;;;;;;;;;;103442;1292;545610;-70
2024/04/14 16:27:47;;;;;;;4.50;1.40;;;;;;;;;;103526;1293;545567;-68
2024/04/14 16:31:25;;;;;;;5.60;1.50;;;;;;;;;;103624;1295;544999;-68
2024/04/14 16:35:02;;;;;;;6.90;1.60;;;;;;;;;;103472;1292;545128;-67
2024/04/14 16:38:40;;;;;;;7.90;1.50;;;;;;;;;;103685;1293;544769;-66
2024/04/14 16:42:16;;;;;;;6.70;1.50;;;;;;;;;;104017;1285;545093;-68
2024/04/14 16:45:55;;;;;;;5.30;1.70;;;;;;;;;;103505;1292;545625;-69
2024/04/14 16:49:32;;;;;;;5.80;1.60;;;;;;;;;;103508;1291;545135;-66
2024/04/14 16:53:09;;;;;;;5.80;1.60;;;;;;;;;;103581;1291;544970;-68
2024/04/14 16:56:47;;;;;;;4.50;1.30;;;;;;;;;;103403;1289;544790;-66
2024/04/14 17:00:26;;;;;;;6.60;1.70;;;;;;;;;;103426;1291;545888;-67
2024/04/14 17:04:02;;;;;;;5.80;1.60;;;;;;;;;;103545;1289;544841;-71
2024/04/14 17:07:40;;;;;;;7.10;1.70;;;;;;;;;;103572;1289;546152;-69
2024/04/14 17:11:17;;;;;;;5.30;1.50;;;;;;;;;;103634;1289;545528;-68
2024/04/14 17:14:54;;;;;;;6.20;1.90;;;;;;;;;;103714;1295;545310;-68
2024/04/14 17:18:53;;;;;;;7.20;2.50;;;;;;;;;;103456;1296;545432;-74
2024/04/14 17:22:09;;;;;;;8.90;3.00;;;;;;;;;;103324;1291;545062;-68
2024/04/14 17:25:47;;;;;;;7.50;1.80;;;;;;;;;;103821;1290;544961;-68
2024/04/14 17:29:24;;;;;;;8.70;2.00;;;;;;;;;;103478;1292;544942;-71
2024/04/14 17:33:02;;;;;;;8.20;2.90;;;;;;;;;;103558;1291;544993;-68
2024/04/14 17:36:39;;;;;;;8.80;3.10;;;;;;;;;;103527;1293;544829;-71
2024/04/14 17:40:17;;;;;;;7.20;2.10;;;;;;;;;;103646;1295;544922;-71
2024/04/14 17:43:55;;;;;;;6.00;1.70;;;;;;;;;;103838;1288;545007;-70
2024/04/14 17:47:32;;;;;;;5.40;1.80;;;;;;;;;;103671;1295;545290;-68
2024/04/14 17:51:09;;;;;;;6.90;1.90;;;;;;;;;;103515;1290;544594;-68
2024/04/14 17:54:47;;;;;;;6.20;1.90;;;;;;;;;;103476;1290;545945;-69
2024/04/14 17:58:24;;;;;;;7.20;1.70;;;;;;;;;;103555;1294;545424;-68
2024/04/14 18:02:02;;;;;;;7.10;2.00;;;;;;;;;;103635;1290;545062;-69
2024/04/14 18:05:39;;;;;;;6.00;1.80;;;;;;;;;;103550;1292;545476;-69
2024/04/14 18:09:16;;;;;;;5.20;1.70;;;;;;;;;;103405;1291;544949;-68
2024/04/14 18:12:56;;;;;;;7.60;1.70;;;;;;;;;;103354;1292;544924;-65
2024/04/14 18:16:32;;;;;;;8.20;2.10;;;;;;;;;;105564;1291;545170;-66
2024/04/14 18:20:06;;;;;;;6.90;1.90;;;;;;;;;;105507;1291;545331;-67
2024/04/14 18:23:43;;;;;;;6.20;2.00;;;;;;;;;;103351;1289;544959;-66
2024/04/14 18:27:25;;;;;;;7.50;2.00;;;;;;;;;;105951;1288;545677;-69
2024/04/14 18:31:01;;;;;;;7.80;1.90;;;;;;;;;;103511;1292;545333;-68
2024/04/14 18:34:35;;;;;;;7.10;2.10;;;;;;;;;;103459;1291;545235;-68
2024/04/14 18:38:16;;;;;;;9.50;2.50;;;;;;;;;;103726;1289;545156;-70
2024/04/14 18:41:55;;;;;;;6.40;2.20;;;;;;;;;;103616;1292;545201;-68
2024/04/14 18:45:32;;;;;;;7.20;2.30;;;;;;;;;;103665;1289;545077;-67
2024/04/14 18:49:09;;;;;;;7.50;2.30;;;;;;;;;;103514;1292;545553;-67
2024/04/14 18:52:46;;;;;;;8.10;2.20;;;;;;;;;;103448;1294;544983;-68
2024/04/14 18:56:24;;;;;;;7.10;2.20;;;;;;;;;;103445;1291;544906;-68
2024/04/14 19:00:01;;;;;;;6.70;1.90;;;;;;;;;;103499;1291;545257;-69
2024/04/14 19:03:39;;;;;;;4.60;1.70;;;;;;;;;;103798;1288;544938;-66
2024/04/14 19:07:16;;;;;;;7.70;2.00;;;;;;;;;;103595;1292;545504;-68
2024/04/14 19:10:54;;;;;;;7.00;2.30;;;;;;;;;;103479;1290;544762;-68
2024/04/14 19:14:31;;;;;;;8.20;1.90;;;;;;;;;;103485;1291;544840;-67
2024/04/14 19:18:09;;;;;;;6.60;2.00;;;;;;;;;;103572;1291;545436;-68
2024/04/14 19:21:46;;;;;;;6.20;1.70;;;;;;;;;;103510;1291;545254;-68
2024/04/14 19:25:24;;;;;;;6.30;1.90;;;;;;;;;;103701;1289;545417;-68
2024/04/14 19:29:04;;;;;;;7.50;2.10;;;;;;;;;;103514;1293;544871;-68
2024/04/14 19:32:39;;;;;;;6.40;1.90;;;;;;;;;;103511;1291;546893;-70
2024/04/14 19:36:17;;;;;;;6.60;1.80;;;;;;;;;;103549;1289;547170;-69
2024/04/14 19:39:54;;;;;;;7.20;2.20;;;;;;;;;;103382;1293;545080;-68
2024/04/14 19:43:34;;;;;;;6.70;2.30;;;;;;;;;;103553;1291;544913;-67
2024/04/14 19:47:09;;;;;;;6.70;1.90;;;;;;;;;;103797;1287;545734;-67
2024/04/14 19:50:47;;;;;;;6.80;1.90;;;;;;;;;;103443;1305;544877;-68
2024/04/14 19:54:24;;;;;;;7.80;1.80;;;;;;;;;;103599;1289;545204;-68
2024/04/14 19:58:01;;;;;;;7.10;1.70;;;;;;;;;;103629;1290;544807;-68
2024/04/14 20:01:39;;;;;;;7.10;1.90;;;;;;;;;;103518;1290;545068;-69
2024/04/14 20:05:16;;;;;;;5.50;1.80;;;;;;;;;;104337;1283;545857;-69
2024/04/14 20:09:05;;;;;;;5.90;1.70;;;;;;;;;;103481;1299;545813;-68
2024/04/14 20:12:31;;;;;;;7.00;1.90;;;;;;;;;;103471;1294;545987;-70
2024/04/14 20:16:10;;;;;;;8.00;1.70;;;;;;;;;;103550;1295;546809;-69
2024/04/14 20:19:46;;;;;;;6.60;1.50;;;;;;;;;;103464;1291;545661;-68
2024/04/14 20:23:27;;;;;;;6.50;1.70;;;;;;;;;;103578;1289;544782;-69
2024/04/14 20:27:01;;;;;;;5.80;1.50;;;;;;;;;;104219;1282;544967;-70
2024/04/14 20:30:39;;;;;;;7.40;1.50;;;;;;;;;;103583;1289;545193;-67
2024/04/14 20:34:16;;;;;;;5.10;1.70;;;;;;;;;;103494;1295;545470;-67
2024/04/14 20:37:54;;;;;;;6.30;1.60;;;;;;;;;;103712;1290;544990;-68
2024/04/14 20:41:31;;;;;;;6.50;1.70;;;;;;;;;;103490;1291;545111;-67
2024/04/14 20:45:10;;;;;;;6.90;1.80;;;;;;;;;;103884;1291;545548;-67
2024/04/14 20:48:46;;;;;;;6.20;1.60;;;;;;;;;;103376;1291;545136;-68
2024/04/14 20:52:25;;;;;;;4.40;1.40;;;;;;;;;;103689;1288;545822;-68
2024/04/14 20:56:01;;;;;;;8.10;1.60;;;;;;;;;;103514;1289;545832;-68
2024/04/14 20:59:40;;;;;;;5.50;1.30;;;;;;;;;;103445;1295;546536;-68
2024/04/14 21:03:17;;;;;;;5.50;1.30;;;;;;;;;;104235;1285;545004;-70
2024/04/14 21:06:54;;;;;;;7.40;1.30;;;;;;;;;;103600;1289;544988;-70